createdAt,value
2018-12-24T00:01:30.955Z,96645.00
2018-12-24T00:04:20.378Z,96632.00
2018-12-24T00:07:09.700Z,96248.00
2018-12-24T00:09:59.012Z,96652.00
2018-12-24T00:12:48.235Z,96649.00
2018-12-24T00:15:56.498Z,96233.00
2018-12-24T00:18:39.092Z,96450.00
2018-12-24T00:21:47.367Z,96655.00
2018-12-24T00:24:36.668Z,96651.00
2018-12-24T00:27:26.059Z,96656.00
2018-12-24T00:30:15.308Z,96286.00
2018-12-24T00:33:04.542Z,96654.00
2018-12-24T00:35:54.481Z,96658.00
2018-12-24T00:38:43.707Z,96291.00
2018-12-24T00:41:33.325Z,96673.00
2018-12-24T00:44:22.708Z,96924.00
2018-12-24T00:47:31.059Z,96401.00
2018-12-24T00:50:20.365Z,96693.00
2018-12-24T00:53:09.759Z,96688.00
2018-12-24T00:55:59.101Z,96313.00
2018-12-24T00:58:48.403Z,96715.00
2018-12-24T01:01:37.720Z,96223.00
2018-12-24T01:04:27.327Z,96701.00
2018-12-24T01:07:17.117Z,96342.00
2018-12-24T01:10:06.858Z,96711.00
2018-12-24T01:12:56.361Z,96732.00
2018-12-24T01:15:45.603Z,96325.00
2018-12-24T01:18:27.959Z,96727.00
2018-12-24T01:21:17.265Z,96701.00
2018-12-24T01:24:06.880Z,96705.00
2018-12-24T01:26:56.115Z,96457.00
2018-12-24T01:29:45.752Z,96735.00
2018-12-24T01:32:34.984Z,96157.00
2018-12-24T01:35:24.362Z,96324.00
2018-12-24T01:38:13.591Z,96378.00
2018-12-24T01:41:02.928Z,96733.00
2018-12-24T01:43:52.169Z,96209.00
2018-12-24T01:46:41.411Z,96369.00
2018-12-24T01:49:49.683Z,96760.00
2018-12-24T01:52:39.220Z,96745.00
2018-12-24T01:55:28.455Z,96304.00
2018-12-24T01:58:17.712Z,96759.00
2018-12-24T02:01:06.960Z,96755.00
2018-12-24T02:03:56.189Z,96764.00
2018-12-24T02:06:45.513Z,96453.00
2018-12-24T02:09:34.800Z,96559.00
2018-12-24T02:12:24.201Z,96771.00
2018-12-24T02:15:13.625Z,96782.00
2018-12-24T02:17:55.257Z,96789.00
2018-12-24T02:20:44.576Z,96806.00
2018-12-24T02:23:52.823Z,96797.00
2018-12-24T02:26:42.077Z,96807.00
2018-12-24T02:29:31.326Z,96811.00
2018-12-24T02:32:20.555Z,96816.00
2018-12-24T02:35:28.876Z,96337.00
2018-12-24T02:38:18.111Z,96396.00
2018-12-24T02:41:07.886Z,96416.00
2018-12-24T02:43:57.114Z,97023.00
2018-12-24T02:46:46.739Z,96853.00
2018-12-24T02:49:36.144Z,96596.00
2018-12-24T02:52:25.378Z,96281.00
2018-12-24T02:55:14.750Z,96407.00
2018-12-24T02:58:23.315Z,96440.00
2018-12-24T03:01:31.989Z,96862.00
2018-12-24T03:05:01.177Z,96870.00
2018-12-24T03:07:50.767Z,96865.00
2018-12-24T03:10:40.106Z,96509.00
2018-12-24T03:13:29.336Z,96868.00
2018-12-24T03:16:18.657Z,96265.00
2018-12-24T03:19:01.033Z,96879.00
2018-12-24T03:21:50.284Z,96882.00
2018-12-24T03:24:58.631Z,96894.00
2018-12-24T03:27:47.840Z,96436.00
2018-12-24T03:30:37.151Z,96695.00
2018-12-24T03:33:26.076Z,96906.00
2018-12-24T03:36:15.318Z,96591.00
2018-12-24T03:39:06.245Z,96760.00
2018-12-24T03:41:55.491Z,96916.00
2018-12-24T03:44:45.048Z,96909.00
2018-12-24T03:47:53.636Z,96907.00
2018-12-24T03:50:42.864Z,96906.00
2018-12-24T03:53:32.107Z,96588.00
2018-12-24T03:56:21.395Z,96913.00
2018-12-24T03:59:29.732Z,96484.00
2018-12-24T04:02:19.049Z,96616.00
2018-12-24T04:05:08.344Z,96922.00
2018-12-24T04:07:58.034Z,96444.00
2018-12-24T04:10:47.524Z,96932.00
2018-12-24T04:13:36.765Z,97058.00
2018-12-24T04:16:26.060Z,96944.00
2018-12-24T04:19:07.902Z,96474.00
2018-12-24T04:21:57.302Z,96963.00
2018-12-24T04:24:46.599Z,96527.00
2018-12-24T04:27:41.607Z,96473.00
2018-12-24T04:30:27.071Z,96988.00
2018-12-24T04:33:16.397Z,96735.00
2018-12-24T04:36:06.059Z,97007.00
2018-12-24T04:38:55.373Z,97008.00
2018-12-24T04:41:44.933Z,97234.00
2018-12-24T04:44:34.173Z,97031.00
2018-12-24T04:47:42.436Z,97043.00
2018-12-24T04:50:31.744Z,96720.00
2018-12-24T04:53:40.347Z,97051.00
2018-12-24T04:56:29.984Z,97067.00
2018-12-24T04:59:19.224Z,96619.00
2018-12-24T05:02:08.465Z,97086.00
2018-12-24T05:08:05.936Z,96722.00
2018-12-24T05:10:55.169Z,97115.00
2018-12-24T05:14:03.429Z,96714.00
2018-12-24T05:16:52.643Z,96716.00
2018-12-24T05:19:34.636Z,96764.00
2018-12-24T05:22:42.903Z,96880.00
2018-12-24T05:25:32.124Z,97159.00
2018-12-24T05:28:21.515Z,96760.00
2018-12-24T05:31:10.739Z,96623.00
2018-12-24T05:34:00.329Z,97181.00
2018-12-24T05:39:57.760Z,97203.00
2018-12-24T05:43:06.406Z,97222.00
2018-12-24T05:45:55.712Z,97227.00
2018-12-24T05:48:45.039Z,96875.00
2018-12-24T05:51:53.307Z,97249.00
2018-12-24T05:55:01.590Z,97176.00
2018-12-24T05:57:50.820Z,97269.00
2018-12-24T06:00:40.298Z,96901.00
2018-12-24T06:03:29.890Z,97290.00
2018-12-24T06:06:38.136Z,97292.00
2018-12-24T06:09:27.722Z,96847.00
2018-12-24T06:12:16.969Z,96871.00
2018-12-24T06:15:06.507Z,96904.00
2018-12-24T06:17:48.080Z,97346.00
2018-12-24T06:20:37.732Z,97363.00
2018-12-24T06:23:47.381Z,97148.00
2018-12-24T06:26:36.669Z,97454.00
2018-12-24T06:29:25.981Z,97394.00
2018-12-24T06:32:15.334Z,96982.00
2018-12-24T06:35:23.968Z,97412.00
2018-12-24T06:38:13.207Z,97423.00
2018-12-24T06:41:02.434Z,97431.00
2018-12-24T06:44:11.048Z,96874.00
2018-12-24T06:47:00.418Z,96968.00
2018-12-24T06:49:50.083Z,97456.00
2018-12-24T06:52:58.683Z,97470.00
2018-12-24T06:55:47.916Z,97474.00
2018-12-24T06:58:37.152Z,97479.00
2018-12-24T07:01:26.455Z,97024.00
2018-12-24T07:04:15.824Z,97501.00
2018-12-24T07:07:05.260Z,97513.00
2018-12-24T07:09:54.576Z,97129.00
2018-12-24T07:12:44.069Z,97525.00
2018-12-24T07:15:33.482Z,97535.00
2018-12-24T07:18:15.553Z,97346.00
2018-12-24T07:21:04.816Z,97148.00
2018-12-24T07:23:54.510Z,97565.00
2018-12-24T07:26:43.818Z,97567.00
2018-12-24T07:29:33.052Z,97573.00
2018-12-24T07:32:22.366Z,97165.00
2018-12-24T07:35:11.867Z,97610.00
2018-12-24T07:38:03.046Z,97615.00
2018-12-24T07:40:52.131Z,97000.00
2018-12-24T07:43:41.373Z,97620.00
2018-12-24T07:46:30.900Z,97637.00
2018-12-24T07:49:20.140Z,97193.00
2018-12-24T07:52:09.364Z,97646.00
2018-12-24T07:54:58.712Z,97584.00
2018-12-24T07:58:06.945Z,97436.00
2018-12-24T08:01:15.638Z,97672.00
2018-12-24T08:04:07.359Z,97182.00
2018-12-24T08:06:56.658Z,97191.00
2018-12-24T08:10:04.930Z,97345.00
2018-12-24T08:13:13.463Z,97692.00
2018-12-24T08:16:21.743Z,97360.00
2018-12-24T08:19:04.135Z,97718.00
2018-12-24T08:21:53.419Z,97718.00
2018-12-24T08:24:42.722Z,97728.00
2018-12-24T08:27:32.297Z,97278.00
2018-12-24T08:30:02.344Z,97740.00
2018-12-24T08:32:51.992Z,97041.00
2018-12-24T08:35:41.314Z,97594.00
2018-12-24T08:38:30.617Z,97261.00
2018-12-24T08:41:19.932Z,97286.00
2018-12-24T08:44:08.870Z,97757.00
2018-12-24T08:46:58.091Z,97482.00
2018-12-24T08:49:47.800Z,97787.00
2018-12-24T08:52:37.100Z,97682.00
2018-12-24T08:55:26.630Z,97478.00
2018-12-24T08:58:16.211Z,97801.00
2018-12-24T09:04:00.138Z,97816.00
2018-12-24T09:06:49.392Z,97706.00
2018-12-24T09:09:38.888Z,97829.00
2018-12-24T09:12:28.188Z,97841.00
2018-12-24T09:15:17.505Z,97844.00
2018-12-24T09:18:06.830Z,97845.00
2018-12-24T09:21:15.455Z,97549.00
2018-12-24T09:24:44.714Z,97521.00
2018-12-24T09:27:34.030Z,97865.00
2018-12-24T09:30:43.591Z,97873.00
2018-12-24T09:33:32.900Z,97617.00
2018-12-24T09:36:41.538Z,97886.00
2018-12-24T09:39:49.875Z,97889.00
2018-12-24T09:42:39.182Z,97560.00
2018-12-24T09:45:28.808Z,97909.00
2018-12-24T09:48:18.115Z,98101.00
2018-12-24T09:51:07.453Z,97903.00
2018-12-24T09:57:10.880Z,97921.00
2018-12-24T10:00:00.652Z,97589.00
2018-12-24T10:03:12.933Z,97664.00
2018-12-24T10:06:43.010Z,97932.00
2018-12-24T10:09:32.343Z,98173.00
2018-12-24T10:12:21.658Z,97724.00
2018-12-24T10:15:10.894Z,97288.00
2018-12-24T10:18:19.432Z,97574.00
2018-12-24T10:21:09.079Z,97578.00
2018-12-24T10:23:58.381Z,98166.00
2018-12-24T10:26:47.640Z,97551.00
2018-12-24T10:29:36.960Z,97354.00
2018-12-24T10:35:34.675Z,97973.00
2018-12-24T10:38:42.920Z,97641.00
2018-12-24T10:41:32.369Z,97385.00
2018-12-24T10:44:21.642Z,97988.00
2018-12-24T10:47:10.957Z,97615.00
2018-12-24T10:50:00.279Z,97981.00
2018-12-24T10:52:49.791Z,97863.00
2018-12-24T10:55:39.637Z,97986.00
2018-12-24T10:58:28.882Z,97447.00
2018-12-24T11:01:18.559Z,97589.00
2018-12-24T11:04:07.879Z,97677.00
2018-12-24T11:06:57.124Z,98001.00
2018-12-24T11:09:46.372Z,97839.00
2018-12-24T11:12:35.942Z,98225.00
2018-12-24T11:15:44.284Z,97558.00
2018-12-24T11:18:26.571Z,98005.00
2018-12-24T11:21:35.115Z,97751.00
2018-12-24T11:24:24.476Z,97542.00
2018-12-24T11:27:13.745Z,97468.00
2018-12-24T11:30:03.152Z,98041.00
2018-12-24T11:32:52.396Z,98017.00
2018-12-24T11:35:41.743Z,98031.00
2018-12-24T11:38:50.079Z,97559.00
2018-12-24T11:41:39.404Z,98032.00
2018-12-24T11:44:48.014Z,97601.00
2018-12-24T11:47:56.298Z,98044.00
2018-12-24T11:51:04.576Z,98060.00
2018-12-24T11:53:54.128Z,98233.00
2018-12-24T11:56:43.400Z,97566.00
2018-12-24T11:59:32.714Z,97638.00
2018-12-24T12:02:22.242Z,98069.00
2018-12-24T12:05:11.837Z,97668.00
2018-12-24T12:08:01.303Z,97929.00
2018-12-24T12:10:50.648Z,97736.00
2018-12-24T12:13:40.436Z,97752.00
2018-12-24T12:16:49.173Z,97951.00
2018-12-24T12:19:31.787Z,97660.00
2018-12-24T12:22:40.180Z,97835.00
2018-12-24T12:25:29.568Z,97758.00
2018-12-24T12:28:18.807Z,97808.00
2018-12-24T12:31:08.117Z,98118.00
2018-12-24T12:33:57.771Z,97494.00
2018-12-24T12:36:47.027Z,97703.00
2018-12-24T12:39:36.383Z,98138.00
2018-12-24T12:42:25.647Z,97736.00
2018-12-24T12:45:15.360Z,98144.00
2018-12-24T12:48:05.049Z,98200.00
2018-12-24T12:50:54.345Z,98167.00
2018-12-24T12:53:43.575Z,98164.00
2018-12-24T12:56:51.851Z,98405.00
2018-12-24T12:59:41.148Z,98165.00
2018-12-24T13:02:49.699Z,98174.00
2018-12-24T13:05:38.917Z,97491.00
2018-12-24T13:08:28.240Z,98181.00
2018-12-24T13:11:17.984Z,98197.00
2018-12-24T13:14:26.257Z,98161.00
2018-12-24T13:17:15.500Z,97762.00
2018-12-24T13:19:57.831Z,98196.00
2018-12-24T13:22:47.310Z,98191.00
2018-12-24T13:25:37.330Z,97945.00
2018-12-24T13:28:26.567Z,97814.00
2018-12-24T13:31:34.916Z,98205.00
2018-12-24T13:34:43.293Z,97880.00
2018-12-24T13:37:32.609Z,98211.00
2018-12-24T13:40:21.936Z,97784.00
2018-12-24T13:43:11.537Z,98221.00
2018-12-24T13:46:08.050Z,97946.00
2018-12-24T13:48:52.464Z,97781.00
2018-12-24T13:51:41.969Z,97810.00
2018-12-24T13:54:31.574Z,98230.00
2018-12-24T13:57:21.261Z,97895.00
2018-12-24T14:00:10.615Z,97848.00
2018-12-24T14:03:18.957Z,98005.00
2018-12-24T14:06:27.229Z,98353.00
2018-12-24T14:09:35.483Z,98281.00
2018-12-24T14:12:24.796Z,98287.00
2018-12-24T14:15:33.112Z,98316.00
2018-12-24T14:18:41.748Z,98306.00
2018-12-24T14:21:31.068Z,98306.00
2018-12-24T14:24:32.650Z,97933.00
2018-12-24T14:27:11.677Z,98323.00
2018-12-24T14:30:01.001Z,98430.00
2018-12-24T14:32:50.247Z,97946.00
2018-12-24T14:35:39.543Z,98090.00
2018-12-24T14:38:28.932Z,97854.00
2018-12-24T14:41:18.242Z,97684.00
2018-12-24T14:44:07.802Z,98336.00
2018-12-24T14:47:16.363Z,98341.00
2018-12-24T14:50:25.021Z,97932.00
2018-12-24T14:53:14.389Z,98498.00
2018-12-24T14:56:03.697Z,98352.00
2018-12-24T14:58:53.313Z,98371.00
2018-12-24T15:02:01.707Z,97832.00
2018-12-24T15:04:51.194Z,98299.00
2018-12-24T15:07:59.550Z,98122.00
2018-12-24T15:10:48.853Z,98389.00
2018-12-24T15:13:38.440Z,98394.00
2018-12-24T15:16:46.706Z,97972.00
2018-12-24T15:19:29.007Z,98394.00
2018-12-24T15:22:18.338Z,98405.00
2018-12-24T15:25:07.630Z,97957.00
2018-12-24T15:27:56.969Z,97759.00
2018-12-24T15:30:46.192Z,97986.00
2018-12-24T15:33:35.454Z,98410.00
2018-12-24T15:36:43.960Z,98410.00
2018-12-24T15:39:33.270Z,98405.00
2018-12-24T15:42:22.515Z,98404.00
2018-12-24T15:45:11.815Z,98402.00
2018-12-24T15:48:20.091Z,98436.00
2018-12-24T15:51:09.896Z,98428.00
2018-12-24T15:53:59.591Z,98420.00
2018-12-24T15:56:48.905Z,97983.00
2018-12-24T15:59:38.480Z,98427.00
2018-12-24T16:02:27.731Z,98440.00
2018-12-24T16:05:17.039Z,98564.00
2018-12-24T16:08:06.380Z,98437.00
2018-12-24T16:11:14.623Z,97877.00
2018-12-24T16:14:04.019Z,98440.00
2018-12-24T16:16:53.407Z,98703.00
2018-12-24T16:19:35.386Z,98219.00
2018-12-24T16:22:24.705Z,98461.00
2018-12-24T16:25:13.928Z,98449.00
2018-12-24T16:28:03.331Z,98076.00
2018-12-24T16:30:52.549Z,98030.00
2018-12-24T16:33:42.177Z,98469.00
2018-12-24T16:36:31.426Z,98470.00
2018-12-24T16:42:16.086Z,98486.00
2018-12-24T16:45:05.603Z,98049.00
2018-12-24T16:48:14.259Z,98491.00
2018-12-24T16:51:22.510Z,98505.00
2018-12-24T16:54:11.752Z,98745.00
2018-12-24T17:03:24.758Z,98511.00
2018-12-24T17:06:14.388Z,97955.00
2018-12-24T17:09:05.325Z,98514.00
2018-12-24T17:12:13.652Z,98199.00
2018-12-24T17:15:03.066Z,98636.00
2018-12-24T17:17:52.663Z,98504.00
2018-12-24T17:20:35.036Z,98473.00
2018-12-24T17:23:24.278Z,98507.00
2018-12-24T17:26:13.572Z,97920.00
2018-12-24T17:29:03.186Z,98510.00
2018-12-24T17:32:11.510Z,98219.00
2018-12-24T17:35:00.829Z,98013.00
2018-12-24T17:37:50.200Z,98499.00
2018-12-24T17:40:39.753Z,98483.00
2018-12-24T17:43:48.032Z,97950.00
2018-12-24T17:46:37.340Z,98263.00
2018-12-24T17:49:26.580Z,98505.00
2018-12-24T17:52:15.969Z,98511.00
2018-12-24T17:55:24.445Z,98503.00
2018-12-24T17:58:14.107Z,98514.00
2018-12-24T18:01:03.403Z,98514.00
2018-12-24T18:03:52.671Z,98799.00
2018-12-24T18:07:00.917Z,98142.00
2018-12-24T18:09:50.665Z,98529.00
2018-12-24T18:12:40.444Z,98546.00
2018-12-24T18:15:48.769Z,98044.00
2018-12-24T18:18:38.112Z,98026.00
2018-12-24T18:21:27.625Z,98089.00
2018-12-24T18:24:16.967Z,97928.00
2018-12-24T18:27:06.640Z,98561.00
2018-12-24T18:29:56.128Z,98051.00
2018-12-24T18:33:04.368Z,98666.00
2018-12-24T18:35:53.671Z,98594.00
2018-12-24T18:38:42.941Z,98601.00
2018-12-24T18:41:32.230Z,98604.00
2018-12-24T18:44:21.468Z,98279.00
2018-12-24T18:47:10.707Z,98597.00
2018-12-24T18:49:59.952Z,98616.00
2018-12-24T18:53:08.201Z,98708.00
2018-12-24T18:55:57.444Z,98601.00
2018-12-24T18:59:05.724Z,98588.00
2018-12-24T19:02:14.459Z,98124.00
2018-12-24T19:05:03.772Z,98029.00
2018-12-24T19:07:53.076Z,98599.00
2018-12-24T19:13:37.560Z,98615.00
2018-12-24T19:16:27.238Z,98180.00
2018-12-24T19:19:09.587Z,98641.00
2018-12-24T19:21:59.209Z,98639.00
2018-12-24T19:24:48.526Z,98189.00
2018-12-24T19:27:38.060Z,98641.00
2018-12-24T19:30:27.316Z,98222.00
2018-12-24T19:33:16.541Z,98743.00
2018-12-24T19:36:05.852Z,98615.00
2018-12-24T19:38:55.099Z,98619.00
2018-12-24T19:41:44.348Z,98617.00
2018-12-24T19:44:33.738Z,98610.00
2018-12-24T19:47:23.118Z,98625.00
2018-12-24T19:50:12.438Z,98613.00
2018-12-24T19:56:09.993Z,98064.00
2018-12-24T19:58:59.625Z,98765.00
2018-12-24T20:01:49.239Z,98558.00
2018-12-24T20:04:38.909Z,98126.00
2018-12-24T20:07:28.210Z,98556.00
2018-12-24T20:10:17.549Z,98648.00
2018-12-24T20:13:06.912Z,98082.00
2018-12-24T20:15:56.226Z,98554.00
2018-12-24T20:18:45.551Z,98132.00
2018-12-24T20:21:34.868Z,98129.00
2018-12-24T20:24:24.183Z,98558.00
2018-12-24T20:27:13.585Z,98553.00
2018-12-24T20:30:03.065Z,98118.00
2018-12-24T20:32:52.724Z,98162.00
2018-12-24T20:35:42.293Z,98034.00
2018-12-24T20:38:36.976Z,98121.00
2018-12-24T20:41:23.188Z,98561.00
2018-12-24T20:44:12.490Z,98529.00
2018-12-24T20:47:01.881Z,98017.00
2018-12-24T20:49:51.159Z,98577.00
2018-12-24T20:52:59.482Z,98581.00
2018-12-24T20:55:48.741Z,98577.00
2018-12-24T20:58:38.323Z,98604.00
2018-12-24T21:01:28.012Z,98599.00
2018-12-24T21:04:17.319Z,98605.00
2018-12-24T21:07:06.566Z,98711.00
2018-12-24T21:10:15.174Z,98300.00
2018-12-24T21:13:04.535Z,98623.00
2018-12-24T21:16:12.805Z,98622.00
2018-12-24T21:18:54.680Z,98550.00
2018-12-24T21:21:44.000Z,98175.00
2018-12-24T21:24:33.608Z,98614.00
2018-12-24T21:27:22.859Z,98215.00
2018-12-24T21:30:12.187Z,98620.00
2018-12-24T21:39:25.321Z,98590.00
2018-12-24T21:42:14.666Z,98217.00
2018-12-24T21:45:03.998Z,98656.00
2018-12-24T21:47:53.301Z,98656.00
2018-12-24T21:50:42.935Z,98663.00
2018-12-24T21:53:51.401Z,98227.00
2018-12-24T21:56:40.728Z,98669.00
2018-12-24T21:59:29.942Z,98739.00
2018-12-24T22:02:38.235Z,98416.00
2018-12-24T22:05:27.486Z,98669.00
2018-12-24T22:08:16.700Z,98666.00
2018-12-24T22:11:06.369Z,98227.00
2018-12-24T22:13:55.889Z,98260.00
2018-12-24T22:16:45.205Z,98659.00
2018-12-24T22:19:26.707Z,98656.00
2018-12-24T22:22:15.954Z,98259.00
2018-12-24T22:25:05.359Z,98668.00
2018-12-24T22:27:54.601Z,98682.00
2018-12-24T22:31:03.162Z,98378.00
2018-12-24T22:34:11.507Z,98675.00
2018-12-24T22:37:00.735Z,98372.00
2018-12-24T22:39:50.042Z,98052.00
2018-12-24T22:42:39.351Z,98674.00
2018-12-24T22:45:47.701Z,98292.00
2018-12-24T22:48:40.789Z,98671.00
2018-12-24T22:51:47.179Z,98288.00
2018-12-24T22:54:36.535Z,98667.00
2018-12-24T22:57:26.133Z,98662.00
2018-12-24T23:03:20.398Z,98652.00
2018-12-24T23:06:09.845Z,98654.00
2018-12-24T23:08:59.067Z,98631.00
2018-12-24T23:11:48.393Z,98202.00
2018-12-24T23:14:37.683Z,98626.00
2018-12-24T23:17:26.996Z,98640.00
2018-12-24T23:20:09.339Z,98053.00
2018-12-24T23:22:58.583Z,98626.00
2018-12-24T23:25:47.833Z,98624.00
2018-12-24T23:28:37.391Z,98274.00
2018-12-24T23:31:27.402Z,98621.00
2018-12-24T23:34:35.644Z,98045.00
2018-12-24T23:37:24.877Z,98612.00
2018-12-24T23:40:14.177Z,98187.00
2018-12-24T23:45:58.602Z,98597.00
2018-12-24T23:48:47.788Z,98591.00
2018-12-24T23:54:33.036Z,98229.00
2018-12-24T23:57:22.293Z,98613.00
